createdAt,value
2018-06-27T00:00:10.821Z,18.77
2018-06-27T00:02:36.809Z,18.73
2018-06-27T00:05:02.760Z,18.65
2018-06-27T00:07:28.730Z,18.57
2018-06-27T00:09:54.675Z,18.46
2018-06-27T00:12:20.624Z,18.58
2018-06-27T00:14:46.582Z,18.69
2018-06-27T00:17:12.509Z,18.54
2018-06-27T00:19:38.523Z,18.31
2018-06-27T00:22:04.504Z,18.36
2018-06-27T00:24:30.454Z,18.38
2018-06-27T00:26:56.408Z,18.47
2018-06-27T00:29:22.404Z,18.35
2018-06-27T00:31:48.355Z,18.23
2018-06-27T00:34:14.309Z,18.25
2018-06-27T00:36:40.257Z,18.42
2018-06-27T00:39:06.222Z,18.37
2018-06-27T00:41:32.172Z,18.44
2018-06-27T00:43:58.119Z,18.46
2018-06-27T00:46:24.049Z,18.49
2018-06-27T00:48:50.018Z,18.41
2018-06-27T00:51:15.999Z,18.30
2018-06-27T00:53:41.976Z,18.21
2018-06-27T00:56:07.923Z,18.13
2018-06-27T00:58:33.886Z,18.11
2018-06-27T01:00:59.848Z,17.99
2018-06-27T01:03:25.794Z,18.12
2018-06-27T01:05:51.732Z,18.20
2018-06-27T01:08:17.694Z,18.11
2018-06-27T01:10:43.719Z,17.92
2018-06-27T01:13:09.607Z,17.87
2018-06-27T01:15:35.545Z,17.82
2018-06-27T01:18:01.476Z,17.90
2018-06-27T01:20:27.432Z,17.93
2018-06-27T01:22:53.411Z,17.93
2018-06-27T01:25:19.377Z,18.08
2018-06-27T01:27:45.316Z,17.91
2018-06-27T01:30:11.282Z,17.84
2018-06-27T01:32:37.228Z,17.87
2018-06-27T01:35:03.205Z,17.85
2018-06-27T01:37:29.169Z,17.87
2018-06-27T01:39:55.111Z,17.83
2018-06-27T01:42:21.063Z,18.00
2018-06-27T01:44:47.018Z,17.95
2018-06-27T01:47:12.975Z,17.91
2018-06-27T01:49:38.910Z,17.99
2018-06-27T01:52:04.854Z,18.06
2018-06-27T01:54:30.813Z,18.02
2018-06-27T01:56:56.787Z,17.84
2018-06-27T01:59:22.730Z,17.88
2018-06-27T02:01:48.682Z,17.85
2018-06-27T02:04:14.649Z,17.84
2018-06-27T02:06:40.631Z,17.77
2018-06-27T02:09:06.633Z,17.75
2018-06-27T02:11:32.563Z,17.89
2018-06-27T02:13:58.504Z,18.11
2018-06-27T02:16:24.446Z,18.10
2018-06-27T02:18:50.385Z,18.15
2018-06-27T02:21:16.359Z,18.11
2018-06-27T02:23:42.314Z,17.97
2018-06-27T02:26:08.323Z,17.90
2018-06-27T02:28:34.300Z,17.80
2018-06-27T02:31:00.262Z,17.85
2018-06-27T02:33:26.236Z,17.81
2018-06-27T02:35:52.203Z,17.79
2018-06-27T02:38:18.147Z,17.71
2018-06-27T02:40:44.104Z,17.62
2018-06-27T02:43:10.068Z,17.59
2018-06-27T02:45:36.018Z,17.68
2018-06-27T02:48:02.014Z,17.65
2018-06-27T02:50:27.979Z,17.63
2018-06-27T02:52:53.963Z,17.64
2018-06-27T02:55:19.920Z,17.52
2018-06-27T02:57:45.872Z,17.45
2018-06-27T03:00:11.833Z,17.51
2018-06-27T03:02:37.835Z,17.63
2018-06-27T03:05:03.765Z,17.66
2018-06-27T03:07:29.731Z,17.78
2018-06-27T03:09:55.699Z,17.78
2018-06-27T03:12:21.833Z,17.82
2018-06-27T03:14:47.800Z,17.62
2018-06-27T03:17:13.758Z,17.56
2018-06-27T03:19:40.745Z,17.50
2018-06-27T03:22:07.930Z,17.49
2018-06-27T03:24:33.936Z,17.41
2018-06-27T03:26:59.903Z,17.46
2018-06-27T03:29:25.932Z,17.43
2018-06-27T03:31:51.924Z,17.47
2018-06-27T03:34:17.897Z,17.40
2018-06-27T03:36:44.022Z,17.43
2018-06-27T03:39:10.107Z,17.55
2018-06-27T03:41:36.096Z,17.48
2018-06-27T03:44:02.080Z,17.53
2018-06-27T03:46:28.040Z,17.52
2018-06-27T03:48:53.976Z,17.54
2018-06-27T03:51:20.182Z,17.56
2018-06-27T03:53:46.209Z,17.65
2018-06-27T03:56:12.154Z,17.82
2018-06-27T03:58:38.132Z,17.88
2018-06-27T04:01:04.126Z,17.95
2018-06-27T04:03:30.054Z,17.80
2018-06-27T04:05:56.010Z,17.82
2018-06-27T04:08:22.037Z,17.87
2018-06-27T04:10:48.017Z,17.96
2018-06-27T04:13:13.997Z,18.12
2018-06-27T04:15:39.934Z,18.16
2018-06-27T04:18:05.974Z,18.17
2018-06-27T04:20:31.984Z,18.20
2018-06-27T04:22:57.953Z,18.25
2018-06-27T04:25:24.005Z,18.46
2018-06-27T04:27:49.997Z,18.36
2018-06-27T04:30:15.950Z,18.56
2018-06-27T04:32:41.923Z,18.72
2018-06-27T04:35:07.866Z,18.83
2018-06-27T04:37:33.829Z,18.95
2018-06-27T04:39:59.785Z,19.04
2018-06-27T04:42:25.751Z,19.24
2018-06-27T04:44:51.684Z,19.54
2018-06-27T04:47:17.640Z,19.78
2018-06-27T04:49:43.611Z,19.88
2018-06-27T04:52:09.577Z,20.07
2018-06-27T04:54:35.614Z,20.33
2018-06-27T04:57:01.580Z,20.44
2018-06-27T04:59:27.544Z,20.53
2018-06-27T05:01:53.540Z,20.65
2018-06-27T05:04:19.545Z,20.70
2018-06-27T05:06:45.521Z,20.79
2018-06-27T05:09:11.502Z,20.87
2018-06-27T05:11:37.509Z,20.93
2018-06-27T05:14:03.495Z,21.06
2018-06-27T05:16:29.519Z,21.26
2018-06-27T05:18:55.469Z,21.21
2018-06-27T05:21:21.420Z,21.36
2018-06-27T05:23:47.386Z,21.38
2018-06-27T05:26:13.368Z,21.51
2018-06-27T05:28:39.335Z,21.66
2018-06-27T05:31:05.311Z,21.74
2018-06-27T05:33:31.307Z,21.87
2018-06-27T05:35:57.263Z,21.88
2018-06-27T05:38:23.262Z,21.74
2018-06-27T05:40:49.258Z,21.94
2018-06-27T05:43:15.250Z,22.03
2018-06-27T05:45:41.190Z,22.08
2018-06-27T05:48:07.171Z,22.17
2018-06-27T05:50:33.192Z,22.30
2018-06-27T05:52:59.197Z,22.37
2018-06-27T05:55:25.176Z,22.45
2018-06-27T05:57:51.163Z,22.56
2018-06-27T06:00:17.126Z,22.64
2018-06-27T06:02:43.121Z,22.94
2018-06-27T06:05:09.075Z,23.05
2018-06-27T06:07:35.030Z,23.08
2018-06-27T06:10:00.997Z,23.18
2018-06-27T06:12:26.990Z,23.30
2018-06-27T06:14:52.938Z,23.33
2018-06-27T06:17:18.887Z,23.45
2018-06-27T06:19:44.916Z,23.46
2018-06-27T06:22:10.851Z,23.64
2018-06-27T06:24:36.828Z,23.71
2018-06-27T06:27:02.776Z,23.81
2018-06-27T06:29:28.768Z,23.92
2018-06-27T06:31:54.716Z,23.98
2018-06-27T06:34:20.669Z,24.16
2018-06-27T06:36:46.617Z,24.26
2018-06-27T06:39:12.556Z,24.24
2018-06-27T06:41:38.539Z,24.26
2018-06-27T06:44:04.478Z,24.43
2018-06-27T06:46:30.430Z,24.07
2018-06-27T06:48:56.452Z,24.73
2018-06-27T06:51:22.421Z,24.92
2018-06-27T06:53:48.387Z,24.76
2018-06-27T06:56:14.440Z,24.79
2018-06-27T06:58:40.441Z,24.97
2018-06-27T07:01:06.424Z,25.13
2018-06-27T07:03:32.393Z,25.29
2018-06-27T07:05:58.331Z,25.42
2018-06-27T07:08:24.300Z,25.53
2018-06-27T07:10:50.258Z,25.61
2018-06-27T07:13:16.273Z,25.56
2018-06-27T07:15:42.227Z,25.71
2018-06-27T07:18:08.250Z,25.77
2018-06-27T07:20:34.218Z,25.45
2018-06-27T07:23:00.177Z,25.06
2018-06-27T07:25:26.114Z,24.71
2018-06-27T07:27:52.086Z,23.86
2018-06-27T07:30:18.061Z,24.52
2018-06-27T07:32:44.014Z,24.15
2018-06-27T07:35:09.970Z,24.26
2018-06-27T07:37:35.986Z,23.77
2018-06-27T07:40:02.022Z,23.55
2018-06-27T07:42:28.052Z,24.15
2018-06-27T07:44:54.050Z,24.31
2018-06-27T07:47:20.036Z,24.65
2018-06-27T07:49:46.060Z,24.86
2018-06-27T07:52:11.962Z,24.88
2018-06-27T07:54:37.963Z,23.89
2018-06-27T07:57:03.950Z,24.01
2018-06-27T07:59:29.928Z,23.73
2018-06-27T08:01:56.671Z,23.50
2018-06-27T08:04:22.659Z,23.93
2018-06-27T08:06:48.641Z,24.07
2018-06-27T08:09:14.658Z,23.73
2018-06-27T08:11:40.582Z,23.88
2018-06-27T08:14:06.535Z,24.06
2018-06-27T08:16:32.477Z,23.60
2018-06-27T08:18:58.440Z,23.39
2018-06-27T08:21:24.479Z,23.08
2018-06-27T08:23:50.474Z,23.12
2018-06-27T08:26:16.543Z,23.05
2018-06-27T08:28:42.557Z,22.92
2018-06-27T08:31:08.537Z,22.82
2018-06-27T08:33:34.601Z,22.86
2018-06-27T08:36:00.597Z,22.79
2018-06-27T08:38:26.617Z,22.57
2018-06-27T08:40:52.620Z,22.53
2018-06-27T08:43:18.668Z,22.41
2018-06-27T08:45:44.669Z,22.46
2018-06-27T08:48:10.693Z,22.38
2018-06-27T08:50:36.768Z,22.23
2018-06-27T08:53:02.778Z,22.23
2018-06-27T08:55:28.766Z,22.40
2018-06-27T08:57:54.821Z,22.57
2018-06-27T09:00:20.812Z,22.33
2018-06-27T09:02:46.765Z,22.42
2018-06-27T09:05:12.777Z,22.34
2018-06-27T09:07:38.859Z,22.17
2018-06-27T09:10:04.830Z,22.18
2018-06-27T09:12:30.852Z,22.20
2018-06-27T09:14:56.879Z,22.25
2018-06-27T09:17:22.878Z,22.32
2018-06-27T09:19:48.829Z,22.37
2018-06-27T09:22:14.848Z,22.21
2018-06-27T09:24:40.854Z,21.93
2018-06-27T09:27:06.869Z,22.12
2018-06-27T09:29:32.941Z,22.08
2018-06-27T09:31:58.961Z,22.14
2018-06-27T09:34:24.963Z,21.98
2018-06-27T09:36:50.985Z,22.04
2018-06-27T09:39:17.038Z,22.22
2018-06-27T09:41:43.040Z,22.20
2018-06-27T09:44:09.050Z,22.10
2018-06-27T09:46:35.104Z,22.13
2018-06-27T09:49:02.126Z,22.21
2018-06-27T09:51:28.165Z,22.26
2018-06-27T09:53:54.186Z,22.21
2018-06-27T09:56:20.224Z,22.23
2018-06-27T09:58:46.218Z,22.04
2018-06-27T10:01:12.145Z,22.03
2018-06-27T10:03:38.082Z,22.08
2018-06-27T10:06:04.022Z,21.93
2018-06-27T10:08:29.960Z,22.00
2018-06-27T10:10:55.910Z,22.05
2018-06-27T10:13:21.982Z,21.93
2018-06-27T10:15:47.964Z,21.90
2018-06-27T10:18:13.956Z,21.84
2018-06-27T10:20:39.984Z,21.80
2018-06-27T10:23:05.955Z,21.74
2018-06-27T10:25:31.951Z,21.79
2018-06-27T10:27:57.889Z,21.84
2018-06-27T10:30:23.826Z,21.84
2018-06-27T10:32:49.806Z,21.83
2018-06-27T10:35:15.784Z,21.96
2018-06-27T10:37:41.735Z,21.92
2018-06-27T10:40:07.671Z,21.81
2018-06-27T10:42:33.665Z,21.76
2018-06-27T10:44:59.625Z,21.76
2018-06-27T10:47:25.668Z,21.69
2018-06-27T10:49:51.640Z,21.80
2018-06-27T10:52:17.590Z,21.85
2018-06-27T10:54:43.520Z,21.81
2018-06-27T10:57:09.479Z,21.87
2018-06-27T10:59:35.443Z,21.82
2018-06-27T11:02:01.409Z,21.89
2018-06-27T11:04:27.366Z,21.94
2018-06-27T11:06:53.312Z,21.96
2018-06-27T11:09:19.275Z,21.90
2018-06-27T11:11:45.237Z,21.83
2018-06-27T11:14:11.228Z,21.86
2018-06-27T11:16:37.159Z,21.93
2018-06-27T11:19:03.089Z,21.75
2018-06-27T11:21:29.062Z,21.72
2018-06-27T11:23:55.008Z,21.73
2018-06-27T11:26:20.974Z,21.86
2018-06-27T11:28:46.943Z,21.81
2018-06-27T11:31:12.929Z,21.85
2018-06-27T11:33:38.873Z,21.80
2018-06-27T11:36:04.803Z,21.79
2018-06-27T11:38:30.811Z,21.65
2018-06-27T11:40:56.705Z,21.58
2018-06-27T11:43:22.671Z,21.63
2018-06-27T11:45:48.635Z,21.70
2018-06-27T11:48:14.595Z,21.81
2018-06-27T11:50:40.556Z,21.89
2018-06-27T11:53:06.534Z,22.02
2018-06-27T11:55:32.494Z,21.96
2018-06-27T11:57:58.459Z,21.99
2018-06-27T12:00:24.415Z,22.02
2018-06-27T12:02:50.373Z,22.05
2018-06-27T12:05:16.314Z,22.16
2018-06-27T12:07:42.282Z,22.28
2018-06-27T12:10:08.228Z,22.14
2018-06-27T12:12:34.201Z,22.18
2018-06-27T12:15:00.301Z,22.18
2018-06-27T12:17:26.256Z,22.21
2018-06-27T12:19:52.212Z,22.13
2018-06-27T12:22:18.172Z,22.21
2018-06-27T12:24:44.125Z,22.16
2018-06-27T12:27:10.089Z,22.13
2018-06-27T12:29:36.061Z,22.06
2018-06-27T12:32:02.054Z,22.01
2018-06-27T12:34:27.994Z,22.03
2018-06-27T12:36:53.943Z,22.09
2018-06-27T12:39:19.905Z,22.01
2018-06-27T12:41:45.867Z,22.01
2018-06-27T12:44:11.830Z,22.03
2018-06-27T12:46:37.758Z,22.02
2018-06-27T12:49:03.708Z,22.05
2018-06-27T12:51:29.657Z,22.12
2018-06-27T12:53:55.675Z,22.17
2018-06-27T12:56:21.615Z,22.17
2018-06-27T12:58:47.573Z,22.23
2018-06-27T13:01:13.542Z,22.19
2018-06-27T13:03:39.497Z,22.16
2018-06-27T13:06:05.441Z,22.25
2018-06-27T13:08:31.393Z,22.34
2018-06-27T13:10:58.237Z,22.42
2018-06-27T13:13:24.221Z,22.50
2018-06-27T13:15:50.234Z,22.44
2018-06-27T13:18:16.157Z,22.29
2018-06-27T13:20:42.178Z,22.38
2018-06-27T13:23:08.194Z,22.40
2018-06-27T13:25:34.185Z,22.33
2018-06-27T13:28:02.522Z,22.33
2018-06-27T13:30:28.594Z,22.36
2018-06-27T13:32:54.570Z,22.21
2018-06-27T13:35:20.504Z,22.12
2018-06-27T13:40:17.922Z,22.29
2018-06-27T13:42:43.881Z,22.22
2018-06-27T13:45:09.838Z,22.20
2018-06-27T13:47:35.813Z,22.32
2018-06-27T13:50:01.779Z,22.35
2018-06-27T13:57:33.678Z,22.38
2018-06-27T14:00:00.662Z,22.43
2018-06-27T14:02:26.610Z,22.48
2018-06-27T14:04:52.557Z,22.54
2018-06-27T14:07:18.509Z,22.48
2018-06-27T14:09:44.536Z,22.36
2018-06-27T14:12:10.492Z,22.41
2018-06-27T14:14:36.478Z,22.46
2018-06-27T14:17:02.433Z,22.41
2018-06-27T14:19:28.413Z,22.44
2018-06-27T14:21:54.390Z,22.39
2018-06-27T14:24:20.409Z,22.42
2018-06-27T14:26:46.350Z,22.48
2018-06-27T14:29:12.290Z,22.55
2018-06-27T14:31:38.233Z,22.55
2018-06-27T14:34:04.208Z,22.61
2018-06-27T14:36:30.171Z,22.64
2018-06-27T14:38:56.110Z,22.47
2018-06-27T14:41:22.076Z,22.46
2018-06-27T14:43:48.081Z,22.42
2018-06-27T14:46:14.072Z,22.40
2018-06-27T14:48:40.045Z,22.41
2018-06-27T14:51:06.000Z,22.40
2018-06-27T14:53:31.970Z,22.44
2018-06-27T14:55:57.892Z,22.51
2018-06-27T14:58:23.821Z,22.40
2018-06-27T15:00:49.781Z,22.39
2018-06-27T15:03:15.726Z,22.43
2018-06-27T15:05:41.688Z,22.33
2018-06-27T15:08:07.636Z,22.36
2018-06-27T15:10:33.590Z,22.36
2018-06-27T15:12:59.536Z,22.42
2018-06-27T15:15:25.495Z,22.41
2018-06-27T15:17:51.435Z,22.37
2018-06-27T15:20:17.376Z,22.33
2018-06-27T15:22:43.350Z,22.35
2018-06-27T15:25:09.287Z,22.34
2018-06-27T15:27:35.235Z,22.31
2018-06-27T15:30:01.176Z,22.39
2018-06-27T15:32:27.113Z,22.42
2018-06-27T15:34:53.053Z,22.41
2018-06-27T15:37:18.979Z,22.33
2018-06-27T15:39:44.941Z,22.36
2018-06-27T15:44:43.276Z,22.36
2018-06-27T15:47:09.286Z,22.28
2018-06-27T15:49:35.250Z,22.23
2018-06-27T15:52:01.186Z,22.16
2018-06-27T15:54:27.161Z,22.19
2018-06-27T15:56:53.174Z,22.30
2018-06-27T15:59:19.104Z,22.33
2018-06-27T16:01:45.078Z,22.26
2018-06-27T16:04:11.144Z,22.26
2018-06-27T16:06:37.085Z,22.21
2018-06-27T16:09:03.059Z,22.17
2018-06-27T16:11:29.100Z,22.28
2018-06-27T16:13:55.014Z,22.22
2018-06-27T16:16:21.020Z,22.28
2018-06-27T16:18:46.992Z,22.33
2018-06-27T16:21:12.923Z,22.39
2018-06-27T16:23:38.884Z,22.38
2018-06-27T16:26:04.845Z,22.40
2018-06-27T16:28:30.790Z,22.36
2018-06-27T16:30:56.721Z,22.38
2018-06-27T16:33:22.668Z,22.41
2018-06-27T16:35:48.693Z,22.43
2018-06-27T16:38:14.614Z,22.40
2018-06-27T16:40:40.583Z,22.20
2018-06-27T16:43:06.578Z,22.44
2018-06-27T16:45:32.526Z,22.40
2018-06-27T16:47:58.457Z,22.37
2018-06-27T16:50:24.431Z,22.42
2018-06-27T16:52:50.413Z,22.41
2018-06-27T16:55:16.435Z,22.37
2018-06-27T16:57:42.380Z,22.38
2018-06-27T17:00:08.338Z,22.38
2018-06-27T17:02:34.292Z,22.38
2018-06-27T17:05:00.257Z,22.38
2018-06-27T17:07:26.224Z,22.39
2018-06-27T17:09:52.164Z,22.33
2018-06-27T17:12:18.117Z,22.34
2018-06-27T17:14:44.048Z,22.39
2018-06-27T17:17:10.011Z,22.40
2018-06-27T17:19:35.959Z,22.34
2018-06-27T17:22:01.932Z,22.36
2018-06-27T17:24:27.874Z,22.42
2018-06-27T17:26:53.830Z,22.35
2018-06-27T17:29:19.777Z,22.35
2018-06-27T17:31:45.757Z,22.33
2018-06-27T17:34:11.797Z,22.38
2018-06-27T17:36:37.754Z,22.39
2018-06-27T17:39:03.700Z,22.40
2018-06-27T17:41:29.694Z,22.36
2018-06-27T17:43:55.653Z,22.37
2018-06-27T17:46:21.634Z,22.39
2018-06-27T17:48:47.583Z,22.38
2018-06-27T17:51:13.696Z,22.39
2018-06-27T17:53:39.708Z,22.34
2018-06-27T17:56:05.688Z,22.32
2018-06-27T17:58:31.639Z,22.39
2018-06-27T18:00:57.609Z,22.35
2018-06-27T18:03:23.567Z,22.33
2018-06-27T18:05:49.525Z,22.36
2018-06-27T18:08:15.491Z,22.32
2018-06-27T18:10:41.436Z,22.38
2018-06-27T18:13:07.424Z,22.37
2018-06-27T18:15:33.368Z,22.37
2018-06-27T18:17:59.358Z,22.34
2018-06-27T18:20:25.333Z,22.31
2018-06-27T18:22:51.305Z,22.34
2018-06-27T18:25:17.268Z,22.30
2018-06-27T18:27:43.212Z,22.33
2018-06-27T18:30:09.266Z,22.32
2018-06-27T18:32:35.241Z,22.30
2018-06-27T18:35:01.191Z,22.29
2018-06-27T18:37:27.168Z,22.30
2018-06-27T18:39:53.128Z,22.32
2018-06-27T18:42:19.090Z,22.29
2018-06-27T18:44:45.138Z,22.28
2018-06-27T18:47:11.117Z,22.26
2018-06-27T18:49:37.157Z,22.26
2018-06-27T18:52:03.241Z,22.31
2018-06-27T18:54:29.192Z,22.31
2018-06-27T18:56:55.198Z,22.27
2018-06-27T18:59:21.179Z,22.28
2018-06-27T19:01:47.360Z,22.26
2018-06-27T19:04:13.213Z,22.33
2018-06-27T19:06:39.266Z,22.25
2018-06-27T19:09:05.235Z,22.27
2018-06-27T19:11:31.234Z,22.26
2018-06-27T19:13:57.355Z,22.25
2018-06-27T19:16:23.309Z,22.27
2018-06-27T19:18:49.289Z,22.29
2018-06-27T19:21:15.249Z,22.28
2018-06-27T19:23:41.214Z,22.17
2018-06-27T19:26:07.237Z,21.64
2018-06-27T19:28:33.225Z,22.18
2018-06-27T19:30:59.193Z,22.20
2018-06-27T19:33:25.139Z,22.16
2018-06-27T19:35:51.127Z,22.23
2018-06-27T19:38:17.181Z,22.20
2018-06-27T19:40:43.063Z,22.23
2018-06-27T19:43:09.025Z,22.19
2018-06-27T19:45:35.030Z,22.18
2018-06-27T19:48:00.971Z,22.16
2018-06-27T19:50:26.925Z,22.18
2018-06-27T19:52:52.886Z,22.18
2018-06-27T19:55:18.899Z,22.12
2018-06-27T19:57:44.820Z,22.15
2018-06-27T20:00:10.846Z,22.12
2018-06-27T20:02:36.814Z,22.12
2018-06-27T20:05:02.795Z,22.13
2018-06-27T20:07:28.779Z,22.11
2018-06-27T20:09:54.773Z,22.10
2018-06-27T20:12:21.067Z,22.03
2018-06-27T20:14:47.023Z,22.08
2018-06-27T20:17:13.000Z,22.06
2018-06-27T20:19:39.084Z,22.09
2018-06-27T20:22:05.135Z,22.06
2018-06-27T20:24:31.081Z,22.02
2018-06-27T20:26:57.059Z,22.05
2018-06-27T20:29:23.034Z,22.10
2018-06-27T20:31:49.046Z,22.03
2018-06-27T20:34:15.126Z,22.01
2018-06-27T20:36:41.119Z,22.04
2018-06-27T20:39:07.089Z,21.99
2018-06-27T20:41:33.038Z,22.03
2018-06-27T20:43:59.000Z,22.03
2018-06-27T20:46:24.979Z,22.06
2018-06-27T20:48:51.038Z,22.01
2018-06-27T20:51:16.988Z,21.94
2018-06-27T20:53:43.063Z,21.95
2018-06-27T20:56:09.029Z,21.93
2018-06-27T20:58:35.005Z,21.98
2018-06-27T21:01:01.000Z,21.92
2018-06-27T21:03:26.974Z,21.93
2018-06-27T21:05:52.954Z,21.92
2018-06-27T21:08:18.913Z,21.94
2018-06-27T21:10:44.913Z,21.96
2018-06-27T21:13:10.855Z,21.98
2018-06-27T21:15:36.836Z,21.94
2018-06-27T21:18:02.788Z,21.91
2018-06-27T21:20:28.744Z,21.85
2018-06-27T21:22:54.731Z,21.89
2018-06-27T21:25:20.671Z,21.91
2018-06-27T21:27:46.641Z,21.88
2018-06-27T21:30:12.624Z,21.80
2018-06-27T21:32:38.655Z,21.79
2018-06-27T21:35:04.601Z,21.85
2018-06-27T21:37:30.558Z,21.83
2018-06-27T21:39:56.510Z,21.77
2018-06-27T21:42:22.476Z,21.76
2018-06-27T21:44:48.452Z,21.75
2018-06-27T21:47:14.442Z,21.76
2018-06-27T21:49:40.425Z,21.68
2018-06-27T21:52:06.393Z,21.69
2018-06-27T21:54:32.341Z,21.74
2018-06-27T21:56:58.285Z,21.71
2018-06-27T21:59:24.241Z,21.73
2018-06-27T22:01:50.232Z,21.76
2018-06-27T22:04:16.177Z,21.78
2018-06-27T22:06:42.157Z,21.75
2018-06-27T22:09:08.177Z,21.75
2018-06-27T22:11:34.076Z,21.76
2018-06-27T22:14:00.026Z,21.66
2018-06-27T22:16:25.988Z,21.68
2018-06-27T22:18:51.925Z,21.72
2018-06-27T22:21:17.879Z,21.78
2018-06-27T22:23:43.825Z,21.75
2018-06-27T22:26:09.776Z,21.65
2018-06-27T22:28:35.724Z,21.75
2018-06-27T22:31:01.718Z,21.75
2018-06-27T22:33:27.747Z,21.77
2018-06-27T22:35:53.675Z,21.70
2018-06-27T22:38:19.642Z,21.68
2018-06-27T22:40:45.590Z,21.71
2018-06-27T22:43:11.537Z,21.75
2018-06-27T22:45:37.499Z,21.71
2018-06-27T22:48:03.441Z,21.68
2018-06-27T22:50:29.390Z,21.68
2018-06-27T22:52:55.376Z,21.65
2018-06-27T22:55:21.366Z,21.61
2018-06-27T22:57:47.360Z,21.61
2018-06-27T23:00:13.319Z,21.66
2018-06-27T23:02:39.257Z,21.57
2018-06-27T23:05:05.195Z,21.56
2018-06-27T23:07:31.148Z,21.60
2018-06-27T23:09:57.091Z,21.50
2018-06-27T23:12:23.056Z,21.50
2018-06-27T23:14:49.041Z,21.50
2018-06-27T23:17:15.015Z,21.41
2018-06-27T23:19:40.985Z,21.45
2018-06-27T23:22:06.929Z,21.37
2018-06-27T23:24:32.937Z,21.29
2018-06-27T23:26:58.910Z,21.33
2018-06-27T23:29:24.844Z,21.36
2018-06-27T23:31:50.793Z,21.22
2018-06-27T23:34:16.757Z,21.23
2018-06-27T23:36:42.748Z,21.31
2018-06-27T23:39:08.724Z,21.27
2018-06-27T23:41:34.724Z,21.18
2018-06-27T23:44:00.668Z,20.78
2018-06-27T23:46:26.633Z,21.18
2018-06-27T23:48:52.579Z,21.13
2018-06-27T23:51:18.540Z,21.18
2018-06-27T23:53:44.490Z,21.03
2018-06-27T23:56:10.518Z,21.06
2018-06-27T23:58:36.543Z,20.85
